createdAt,value
2018-12-17T00:01:23.062Z,67.97
2018-12-17T00:03:51.637Z,66.37
2018-12-17T00:06:20.454Z,63.80
2018-12-17T00:08:49.275Z,63.23
2018-12-17T00:11:18.235Z,66.07
2018-12-17T00:13:46.786Z,64.83
2018-12-17T00:16:16.444Z,67.77
2018-12-17T00:18:44.992Z,67.63
2018-12-17T00:21:13.831Z,67.13
2018-12-17T00:23:42.397Z,71.00
2018-12-17T00:26:11.194Z,69.17
2018-12-17T00:28:39.721Z,73.37
2018-12-17T00:31:08.628Z,70.07
2018-12-17T00:33:37.195Z,70.93
2018-12-17T00:36:06.161Z,74.07
2018-12-17T00:38:34.735Z,72.53
2018-12-17T00:41:03.530Z,78.93
2018-12-17T00:43:32.415Z,78.07
2018-12-17T00:46:01.109Z,77.73
2018-12-17T00:48:29.933Z,74.77
2018-12-17T00:50:58.809Z,72.30
2018-12-17T00:53:27.474Z,74.70
2018-12-17T00:55:56.196Z,73.37
2018-12-17T00:58:24.750Z,71.33
2018-12-17T01:00:53.555Z,70.63
2018-12-17T01:03:22.092Z,71.17
2018-12-17T01:05:50.949Z,68.20
2018-12-17T01:08:19.502Z,72.27
2018-12-17T01:10:48.363Z,76.80
2018-12-17T01:13:16.918Z,75.27
2018-12-17T01:15:45.571Z,77.00
2018-12-17T01:18:14.097Z,71.83
2018-12-17T01:20:42.869Z,74.67
2018-12-17T01:23:11.436Z,76.87
2018-12-17T01:25:40.159Z,74.27
2018-12-17T01:28:08.835Z,70.23
2018-12-17T01:30:37.572Z,65.23
2018-12-17T01:33:06.135Z,66.07
2018-12-17T01:35:34.746Z,65.20
2018-12-17T01:38:03.318Z,63.57
2018-12-17T01:40:32.093Z,64.13
2018-12-17T01:43:00.660Z,64.20
2018-12-17T01:45:29.463Z,64.70
2018-12-17T01:47:58.044Z,62.90
2018-12-17T01:50:26.940Z,64.60
2018-12-17T01:52:55.502Z,62.37
2018-12-17T01:55:24.288Z,65.80
2018-12-17T01:57:52.843Z,65.43
2018-12-17T02:00:21.578Z,64.80
2018-12-17T02:02:50.163Z,69.27
2018-12-17T02:05:18.920Z,66.43
2018-12-17T02:07:47.510Z,66.47
2018-12-17T02:10:16.287Z,69.63
2018-12-17T02:12:44.825Z,70.90
2018-12-17T02:15:13.553Z,68.47
2018-12-17T02:17:42.132Z,68.10
2018-12-17T02:20:10.754Z,68.90
2018-12-17T02:22:39.304Z,72.23
2018-12-17T02:25:08.028Z,72.80
2018-12-17T02:27:36.559Z,71.93
2018-12-17T02:30:05.853Z,71.33
2018-12-17T02:32:34.465Z,73.23
2018-12-17T02:35:03.387Z,71.47
2018-12-17T02:37:31.947Z,70.97
2018-12-17T02:40:00.953Z,74.07
2018-12-17T02:42:29.506Z,73.37
2018-12-17T02:44:58.252Z,71.23
2018-12-17T02:47:26.812Z,73.13
2018-12-17T02:49:55.710Z,70.60
2018-12-17T02:52:24.368Z,69.93
2018-12-17T02:54:53.184Z,75.80
2018-12-17T02:57:21.723Z,75.13
2018-12-17T02:59:50.491Z,73.20
2018-12-17T03:02:19.070Z,71.40
2018-12-17T03:04:47.956Z,75.00
2018-12-17T03:07:16.511Z,74.60
2018-12-17T03:09:45.350Z,77.80
2018-12-17T03:12:13.892Z,77.00
2018-12-17T03:14:42.786Z,76.60
2018-12-17T03:17:11.340Z,76.00
2018-12-17T03:19:39.968Z,75.93
2018-12-17T03:22:08.514Z,84.00
2018-12-17T03:24:37.356Z,80.90
2018-12-17T03:27:05.919Z,81.23
2018-12-17T03:29:34.574Z,85.17
2018-12-17T03:32:03.107Z,87.60
2018-12-17T03:34:31.813Z,92.37
2018-12-17T03:37:00.383Z,89.17
2018-12-17T03:39:29.026Z,94.33
2018-12-17T03:41:57.695Z,85.10
2018-12-17T03:44:26.317Z,85.87
2018-12-17T03:46:54.948Z,81.17
2018-12-17T03:49:23.722Z,83.30
2018-12-17T03:51:52.332Z,82.23
2018-12-17T03:54:21.067Z,82.37
2018-12-17T03:56:49.623Z,91.93
2018-12-17T03:59:18.350Z,97.17
2018-12-17T04:01:46.910Z,93.87
2018-12-17T04:04:15.683Z,90.30
2018-12-17T04:06:44.239Z,86.87
2018-12-17T04:09:13.099Z,84.70
2018-12-17T04:11:41.652Z,84.50
2018-12-17T04:14:10.469Z,84.83
2018-12-17T04:16:39.027Z,84.87
2018-12-17T04:19:07.968Z,99.87
2018-12-17T04:21:36.517Z,89.70
2018-12-17T04:24:05.352Z,95.57
2018-12-17T04:26:33.900Z,99.57
2018-12-17T04:29:06.760Z,94.43
2018-12-17T04:31:33.387Z,91.90
2018-12-17T04:34:02.256Z,89.10
2018-12-17T04:36:30.838Z,89.10
2018-12-17T04:38:59.666Z,90.93
2018-12-17T04:41:28.325Z,88.23
2018-12-17T04:43:56.983Z,90.47
2018-12-17T04:46:25.608Z,96.77
2018-12-17T04:48:54.276Z,89.83
2018-12-17T04:51:23.070Z,88.07
2018-12-17T04:53:51.682Z,89.33
2018-12-17T04:56:20.231Z,89.50
2018-12-17T04:58:48.783Z,89.10
2018-12-17T05:01:17.553Z,106.57
2018-12-17T05:03:46.095Z,100.00
2018-12-17T05:06:14.822Z,101.37
2018-12-17T05:08:43.360Z,91.40
2018-12-17T05:11:12.196Z,94.87
2018-12-17T05:13:40.967Z,90.93
2018-12-17T05:16:09.690Z,87.63
2018-12-17T05:18:38.249Z,90.53
2018-12-17T05:21:07.071Z,92.13
2018-12-17T05:23:35.603Z,88.97
2018-12-17T05:26:04.453Z,91.43
2018-12-17T05:28:33.001Z,91.50
2018-12-17T05:31:01.789Z,93.23
2018-12-17T05:33:30.401Z,94.70
2018-12-17T05:35:59.196Z,93.07
2018-12-17T05:38:27.762Z,99.23
2018-12-17T05:40:57.000Z,93.73
2018-12-17T05:43:25.573Z,82.90
2018-12-17T05:45:54.487Z,87.03
2018-12-17T05:48:23.125Z,89.70
2018-12-17T05:50:51.949Z,91.00
2018-12-17T05:53:20.470Z,82.33
2018-12-17T05:55:49.129Z,82.73
2018-12-17T05:58:17.678Z,81.07
2018-12-17T06:00:46.355Z,78.57
2018-12-17T06:03:14.889Z,77.03
2018-12-17T06:05:43.831Z,75.37
2018-12-17T06:08:13.307Z,78.80
2018-12-17T06:10:42.050Z,79.33
2018-12-17T06:13:10.587Z,76.53
2018-12-17T06:15:39.454Z,75.40
2018-12-17T06:18:08.017Z,76.43
2018-12-17T06:20:36.966Z,69.73
2018-12-17T06:23:05.476Z,66.73
2018-12-17T06:25:34.647Z,67.07
2018-12-17T06:28:03.295Z,70.93
2018-12-17T06:30:32.217Z,69.30
2018-12-17T06:33:00.730Z,70.43
2018-12-17T06:35:29.415Z,75.53
2018-12-17T06:37:57.944Z,79.83
2018-12-17T06:40:26.647Z,79.70
2018-12-17T06:42:55.205Z,73.13
2018-12-17T06:45:24.063Z,76.10
2018-12-17T06:47:52.703Z,74.70
2018-12-17T06:50:21.532Z,75.97
2018-12-17T06:52:50.065Z,78.20
2018-12-17T06:55:18.917Z,83.50
2018-12-17T06:57:47.879Z,87.97
2018-12-17T07:00:16.689Z,92.97
2018-12-17T07:02:45.226Z,95.77
2018-12-17T07:05:14.084Z,93.57
2018-12-17T07:07:42.635Z,92.13
2018-12-17T07:10:11.560Z,95.20
2018-12-17T07:12:40.192Z,93.73
2018-12-17T07:15:08.971Z,96.43
2018-12-17T07:17:37.526Z,93.07
2018-12-17T07:20:06.457Z,95.13
2018-12-17T07:22:35.021Z,98.10
2018-12-17T07:25:04.115Z,93.20
2018-12-17T07:27:32.698Z,95.77
2018-12-17T07:30:01.496Z,97.27
2018-12-17T07:32:30.022Z,97.23
2018-12-17T07:34:59.093Z,92.47
2018-12-17T07:37:28.006Z,95.63
2018-12-17T07:39:56.751Z,94.10
2018-12-17T07:42:25.316Z,95.80
2018-12-17T07:44:54.031Z,95.10
2018-12-17T07:47:22.600Z,98.70
2018-12-17T07:49:51.411Z,97.80
2018-12-17T07:52:19.984Z,95.97
2018-12-17T07:54:48.854Z,100.20
2018-12-17T07:57:17.661Z,101.57
2018-12-17T07:59:46.468Z,100.83
2018-12-17T08:02:15.222Z,97.17
2018-12-17T08:04:44.083Z,107.40
2018-12-17T08:07:12.622Z,101.23
2018-12-17T08:09:41.465Z,102.83
2018-12-17T08:12:10.019Z,107.13
2018-12-17T08:14:38.943Z,108.13
2018-12-17T08:17:07.618Z,104.37
2018-12-17T08:19:36.401Z,105.43
2018-12-17T08:22:04.987Z,113.90
2018-12-17T08:24:33.892Z,113.47
2018-12-17T08:27:02.505Z,115.00
2018-12-17T08:29:31.075Z,109.70
2018-12-17T08:31:59.674Z,120.67
2018-12-17T08:34:28.550Z,120.77
2018-12-17T08:36:57.099Z,122.17
2018-12-17T08:39:26.033Z,121.57
2018-12-17T08:41:54.582Z,125.37
2018-12-17T08:44:23.310Z,125.37
2018-12-17T08:46:51.867Z,127.23
2018-12-17T08:49:20.582Z,132.33
2018-12-17T08:51:49.151Z,129.93
2018-12-17T08:54:17.973Z,130.67
2018-12-17T08:56:46.506Z,132.60
2018-12-17T08:59:15.471Z,132.13
2018-12-17T09:01:44.200Z,127.60
2018-12-17T09:04:13.237Z,126.67
2018-12-17T09:06:41.957Z,123.87
2018-12-17T09:09:10.823Z,126.47
2018-12-17T09:11:39.379Z,121.03
2018-12-17T09:14:08.437Z,123.20
2018-12-17T09:16:37.067Z,122.03
2018-12-17T09:19:05.985Z,118.80
2018-12-17T09:21:34.590Z,119.43
2018-12-17T09:24:03.420Z,120.20
2018-12-17T09:26:32.623Z,118.43
2018-12-17T09:29:01.503Z,115.03
2018-12-17T09:31:30.063Z,117.20
2018-12-17T09:33:58.848Z,118.23
2018-12-17T09:36:27.389Z,117.33
2018-12-17T09:38:56.242Z,116.03
2018-12-17T09:41:24.800Z,117.43
2018-12-17T09:43:53.726Z,116.93
2018-12-17T09:46:22.442Z,111.37
2018-12-17T09:48:51.310Z,116.87
2018-12-17T09:51:19.925Z,116.20
2018-12-17T09:53:48.876Z,120.93
2018-12-17T09:56:17.414Z,125.23
2018-12-17T09:58:46.146Z,128.90
2018-12-17T10:01:14.737Z,118.97
2018-12-17T10:03:43.534Z,122.90
2018-12-17T10:06:12.107Z,125.67
2018-12-17T10:08:41.119Z,124.17
2018-12-17T10:11:09.697Z,125.73
2018-12-17T10:13:38.371Z,123.73
2018-12-17T10:16:06.967Z,119.33
2018-12-17T10:18:36.963Z,122.10
2018-12-17T10:21:05.830Z,117.23
2018-12-17T10:23:34.848Z,120.57
2018-12-17T10:26:03.554Z,133.33
2018-12-17T10:28:32.388Z,122.37
2018-12-17T10:31:01.010Z,103.63
2018-12-17T10:33:29.650Z,101.23
2018-12-17T10:35:58.227Z,99.50
2018-12-17T10:38:27.133Z,93.60
2018-12-17T10:40:55.722Z,79.57
2018-12-17T10:43:24.486Z,81.90
2018-12-17T10:45:53.060Z,80.37
2018-12-17T10:48:21.923Z,88.20
2018-12-17T10:50:50.491Z,86.90
2018-12-17T10:53:19.330Z,91.17
2018-12-17T10:55:47.935Z,82.93
2018-12-17T10:58:16.674Z,82.27
2018-12-17T11:00:50.656Z,68.93
2018-12-17T11:03:23.690Z,57.80
2018-12-17T11:05:54.079Z,49.50
2018-12-17T11:08:23.008Z,46.87
2018-12-17T11:10:51.555Z,40.93
2018-12-17T11:13:20.456Z,40.77
2018-12-17T11:15:49.032Z,36.67
2018-12-17T11:18:17.952Z,38.80
2018-12-17T11:20:46.504Z,40.17
2018-12-17T11:23:15.315Z,37.83
2018-12-17T11:25:43.860Z,36.93
2018-12-17T11:28:12.672Z,40.23
2018-12-17T11:30:46.487Z,35.80
2018-12-17T11:33:12.265Z,37.87
2018-12-17T11:35:41.369Z,34.43
2018-12-17T11:38:10.357Z,37.50
2018-12-17T11:40:38.989Z,36.47
2018-12-17T11:43:07.715Z,38.80
2018-12-17T11:45:36.394Z,36.43
2018-12-17T11:48:05.183Z,36.07
2018-12-17T11:50:33.744Z,41.03
2018-12-17T11:53:02.587Z,41.97
2018-12-17T11:55:31.111Z,36.43
2018-12-17T11:58:10.992Z,42.10
2018-12-17T12:00:41.859Z,45.17
2018-12-17T12:03:10.745Z,44.83
2018-12-17T12:05:39.289Z,42.47
2018-12-17T12:08:08.115Z,42.47
2018-12-17T12:10:43.297Z,41.67
2018-12-17T12:13:12.132Z,41.70
2018-12-17T12:15:40.699Z,42.50
2018-12-17T12:18:09.412Z,42.57
2018-12-17T12:20:38.081Z,42.13
2018-12-17T12:23:07.026Z,44.87
2018-12-17T12:25:35.570Z,43.13
2018-12-17T12:28:04.410Z,42.53
2018-12-17T12:30:33.002Z,43.70
2018-12-17T12:33:01.760Z,48.67
2018-12-17T12:35:30.423Z,42.63
2018-12-17T12:37:59.219Z,39.73
2018-12-17T12:40:27.787Z,41.47
2018-12-17T12:42:56.388Z,41.90
2018-12-17T12:45:24.984Z,42.33
2018-12-17T12:47:53.904Z,42.07
2018-12-17T12:50:22.458Z,44.87
2018-12-17T12:52:51.274Z,42.07
2018-12-17T12:55:19.815Z,41.70
2018-12-17T12:57:48.678Z,42.03
2018-12-17T13:00:17.283Z,43.00
2018-12-17T13:02:46.149Z,41.47
2018-12-17T13:05:14.699Z,41.10
2018-12-17T13:07:43.503Z,39.83
2018-12-17T13:10:13.313Z,40.47
2018-12-17T13:12:42.455Z,42.47
2018-12-17T13:15:11.102Z,41.60
2018-12-17T13:17:39.919Z,41.10
2018-12-17T13:20:09.654Z,41.53
2018-12-17T13:22:38.539Z,44.27
2018-12-17T13:25:10.438Z,42.07
2018-12-17T13:27:39.311Z,41.47
2018-12-17T13:30:09.341Z,43.83
2018-12-17T13:32:38.397Z,46.47
2018-12-17T13:35:08.307Z,43.93
2018-12-17T13:37:37.121Z,43.40
2018-12-17T13:40:07.964Z,44.80
2018-12-17T13:42:36.893Z,43.70
2018-12-17T13:45:06.129Z,43.10
2018-12-17T13:47:34.975Z,44.63
2018-12-17T13:50:08.833Z,45.17
2018-12-17T13:52:43.113Z,45.63
2018-12-17T13:55:12.014Z,44.13
2018-12-17T13:57:40.825Z,45.47
2018-12-17T14:00:11.777Z,46.43
2018-12-17T14:02:40.799Z,46.17
2018-12-17T14:05:09.557Z,48.27
2018-12-17T14:07:38.381Z,48.63
2018-12-17T14:10:14.519Z,50.07
2018-12-17T14:12:43.350Z,50.83
2018-12-17T14:15:11.923Z,46.37
2018-12-17T14:17:45.105Z,47.97
2018-12-17T14:20:19.028Z,49.23
2018-12-17T14:22:47.931Z,49.03
2018-12-17T14:25:16.504Z,49.50
2018-12-17T14:27:45.309Z,49.90
2018-12-17T14:30:13.982Z,49.93
2018-12-17T14:32:42.819Z,52.03
2018-12-17T14:35:11.465Z,53.77
2018-12-17T14:37:45.924Z,52.43
2018-12-17T14:40:15.359Z,53.10
2018-12-17T14:42:44.633Z,53.33
2018-12-17T14:45:13.227Z,50.60
2018-12-17T14:47:42.465Z,53.70
2018-12-17T14:50:11.051Z,53.37
2018-12-17T14:52:39.879Z,56.37
2018-12-17T14:55:08.750Z,57.73
2018-12-17T14:57:37.914Z,57.07
2018-12-17T15:00:07.715Z,59.07
2018-12-17T15:02:36.516Z,57.90
2018-12-17T15:05:05.574Z,63.00
2018-12-17T15:07:34.484Z,66.80
2018-12-17T15:10:03.026Z,64.23
2018-12-17T15:12:31.899Z,72.47
2018-12-17T15:15:00.450Z,78.27
2018-12-17T15:17:29.388Z,84.33
2018-12-17T15:19:58.021Z,78.73
2018-12-17T15:22:26.910Z,85.47
2018-12-17T15:24:55.658Z,93.13
2018-12-17T15:27:24.611Z,92.83
2018-12-17T15:29:53.333Z,96.13
2018-12-17T15:32:22.291Z,100.77
2018-12-17T15:34:50.919Z,119.97
2018-12-17T15:37:19.782Z,123.10
2018-12-17T15:39:48.717Z,117.77
2018-12-17T15:42:17.632Z,129.80
2018-12-17T15:44:46.604Z,123.60
2018-12-17T15:47:15.457Z,123.03
2018-12-17T15:49:44.066Z,122.27
2018-12-17T15:52:13.008Z,111.67
2018-12-17T15:54:41.724Z,114.00
2018-12-17T15:57:10.802Z,113.90
2018-12-17T15:59:39.648Z,105.57
2018-12-17T16:02:08.585Z,107.47
2018-12-17T16:04:37.136Z,108.20
2018-12-17T16:07:06.147Z,106.27
2018-12-17T16:09:34.795Z,98.70
2018-12-17T16:12:03.826Z,102.10
2018-12-17T16:14:32.499Z,94.13
2018-12-17T16:17:01.387Z,95.07
2018-12-17T16:19:30.200Z,95.80
2018-12-17T16:21:59.152Z,95.80
2018-12-17T16:24:27.756Z,96.27
2018-12-17T16:26:58.068Z,98.97
2018-12-17T16:29:26.623Z,100.50
2018-12-17T16:31:57.523Z,103.67
2018-12-17T16:34:26.262Z,105.10
2018-12-17T16:36:55.384Z,106.90
2018-12-17T16:39:24.136Z,98.63
2018-12-17T16:41:53.449Z,83.33
2018-12-17T16:44:22.059Z,87.80
2018-12-17T16:46:50.866Z,74.67
2018-12-17T16:49:19.497Z,74.73
2018-12-17T16:51:48.371Z,72.00
2018-12-17T16:54:21.221Z,82.83
2018-12-17T16:56:50.467Z,83.43
2018-12-17T16:59:19.113Z,91.13
2018-12-17T17:01:48.013Z,105.67
2018-12-17T17:04:16.597Z,105.63
2018-12-17T17:06:45.624Z,103.30
2018-12-17T17:09:14.384Z,107.63
2018-12-17T17:11:43.235Z,98.07
2018-12-17T17:14:12.087Z,86.67
2018-12-17T17:16:41.114Z,100.03
2018-12-17T17:19:09.823Z,126.27
2018-12-17T17:21:38.809Z,106.57
2018-12-17T17:24:07.571Z,120.73
2018-12-17T17:26:36.461Z,116.07
2018-12-17T17:29:05.047Z,113.50
2018-12-17T17:31:34.196Z,114.50
2018-12-17T17:34:02.797Z,110.97
2018-12-17T17:36:31.552Z,114.30
2018-12-17T17:39:00.280Z,126.30
2018-12-17T17:41:29.063Z,129.13
2018-12-17T17:43:57.618Z,123.97
2018-12-17T17:46:26.935Z,127.63
2018-12-17T17:48:55.865Z,122.40
2018-12-17T17:51:24.807Z,120.07
2018-12-17T17:53:53.417Z,121.23
2018-12-17T17:56:22.147Z,122.77
2018-12-17T17:58:50.906Z,125.10
2018-12-17T18:01:19.782Z,122.07
2018-12-17T18:03:48.398Z,123.00
2018-12-17T18:06:17.390Z,127.43
2018-12-17T18:08:46.190Z,126.97
2018-12-17T18:11:15.134Z,124.17
2018-12-17T18:13:43.712Z,134.97
2018-12-17T18:16:12.521Z,131.40
2018-12-17T18:18:41.192Z,121.77
2018-12-17T18:21:10.134Z,127.27
2018-12-17T18:23:38.726Z,124.10
2018-12-17T18:26:07.682Z,124.20
2018-12-17T18:28:36.338Z,117.77
2018-12-17T18:31:05.278Z,115.60
2018-12-17T18:33:34.654Z,112.53
2018-12-17T18:36:03.570Z,116.47
2018-12-17T18:38:32.331Z,115.10
2018-12-17T18:41:01.116Z,116.00
2018-12-17T18:43:29.857Z,108.60
2018-12-17T18:45:58.743Z,108.97
2018-12-17T18:48:27.296Z,103.33
2018-12-17T18:50:56.347Z,102.77
2018-12-17T18:53:24.918Z,100.00
2018-12-17T18:55:53.796Z,87.03
2018-12-17T18:58:22.501Z,90.90
2018-12-17T19:00:51.289Z,84.47
2018-12-17T19:03:19.843Z,84.80
2018-12-17T19:05:48.693Z,85.13
2018-12-17T19:08:17.513Z,82.97
2018-12-17T19:10:51.479Z,81.13
2018-12-17T19:13:20.217Z,83.53
2018-12-17T19:15:49.170Z,85.57
2018-12-17T19:18:17.845Z,81.47
2018-12-17T19:20:47.346Z,82.47
2018-12-17T19:23:16.144Z,82.30
2018-12-17T19:25:45.037Z,83.47
2018-12-17T19:28:13.708Z,83.77
2018-12-17T19:30:43.466Z,83.20
2018-12-17T19:33:12.413Z,81.97
2018-12-17T19:35:41.403Z,82.43
2018-12-17T19:38:10.183Z,79.10
2018-12-17T19:40:39.224Z,73.67
2018-12-17T19:43:07.840Z,75.70
2018-12-17T19:45:36.588Z,78.27
2018-12-17T19:48:05.367Z,75.33
2018-12-17T19:50:34.176Z,79.27
2018-12-17T19:53:02.844Z,79.43
2018-12-17T19:55:31.680Z,82.17
2018-12-17T19:58:00.403Z,85.20
2018-12-17T20:00:29.408Z,104.07
2018-12-17T20:02:58.087Z,99.33
2018-12-17T20:05:26.974Z,104.57
2018-12-17T20:07:55.918Z,93.40
2018-12-17T20:10:27.561Z,91.70
2018-12-17T20:12:56.302Z,84.33
2018-12-17T20:15:25.154Z,88.47
2018-12-17T20:17:53.985Z,84.80
2018-12-17T20:20:23.230Z,81.53
2018-12-17T20:22:51.929Z,83.70
2018-12-17T20:25:20.735Z,78.07
2018-12-17T20:27:49.523Z,77.27
2018-12-17T20:30:18.447Z,72.97
2018-12-17T20:32:53.446Z,75.00
2018-12-17T20:35:18.328Z,73.83
2018-12-17T20:37:46.898Z,75.20
2018-12-17T20:40:17.203Z,73.20
2018-12-17T20:42:47.200Z,75.67
2018-12-17T20:45:16.931Z,73.37
2018-12-17T20:47:47.191Z,76.83
2018-12-17T20:50:16.409Z,75.53
2018-12-17T20:52:45.295Z,74.33
2018-12-17T20:55:14.369Z,77.77
2018-12-17T20:57:43.294Z,75.73
2018-12-17T21:00:12.505Z,76.63
2018-12-17T21:02:41.389Z,78.70
2018-12-17T21:05:10.535Z,80.13
2018-12-17T21:07:39.556Z,82.40
2018-12-17T21:10:09.756Z,79.20
2018-12-17T21:12:38.379Z,78.80
2018-12-17T21:15:07.233Z,82.10
2018-12-17T21:17:36.237Z,79.67
2018-12-17T21:20:05.309Z,78.07
2018-12-17T21:22:33.911Z,79.33
2018-12-17T21:25:02.963Z,75.77
2018-12-17T21:27:31.765Z,77.37
2018-12-17T21:30:00.813Z,76.47
2018-12-17T21:32:29.848Z,74.73
2018-12-17T21:34:58.824Z,75.60
2018-12-17T21:37:27.738Z,77.23
2018-12-17T21:39:56.822Z,79.03
2018-12-17T21:42:25.585Z,76.57
2018-12-17T21:44:54.585Z,75.37
2018-12-17T21:47:23.320Z,75.30
2018-12-17T21:49:52.169Z,77.23
2018-12-17T21:52:20.860Z,72.10
2018-12-17T21:54:50.299Z,72.57
2018-12-17T21:57:19.047Z,72.97
2018-12-17T21:59:48.386Z,65.77
2018-12-17T22:02:17.108Z,62.47
2018-12-17T22:04:45.962Z,62.13
2018-12-17T22:07:14.587Z,62.47
2018-12-17T22:09:43.255Z,61.40
2018-12-17T22:12:11.823Z,57.50
2018-12-17T22:14:40.541Z,56.47
2018-12-17T22:17:09.266Z,61.00
2018-12-17T22:19:38.366Z,59.63
2018-12-17T22:22:07.469Z,58.47
2018-12-17T22:24:36.765Z,57.77
2018-12-17T22:27:05.322Z,61.17
2018-12-17T22:29:34.253Z,63.00
2018-12-17T22:32:02.809Z,60.57
2018-12-17T22:34:31.766Z,57.13
2018-12-17T22:37:00.605Z,56.23
2018-12-17T22:39:29.639Z,56.37
2018-12-17T22:41:58.262Z,58.57
2018-12-17T22:44:27.131Z,57.53
2018-12-17T22:46:55.782Z,57.63
2018-12-17T22:49:24.807Z,61.33
2018-12-17T22:51:53.379Z,61.90
2018-12-17T22:54:22.293Z,61.07
2018-12-17T22:56:50.881Z,62.13
2018-12-17T22:59:19.772Z,62.63
2018-12-17T23:01:48.395Z,62.43
2018-12-17T23:04:17.296Z,62.20
2018-12-17T23:06:45.981Z,63.70
2018-12-17T23:09:13.420Z,64.00
2018-12-17T23:11:59.116Z,63.40
2018-12-17T23:14:38.789Z,62.73
2018-12-17T23:17:18.489Z,64.30
2018-12-17T23:19:48.223Z,64.83
2018-12-17T23:22:17.161Z,65.97
2018-12-17T23:24:45.746Z,68.90
2018-12-17T23:27:14.652Z,64.57
2018-12-17T23:29:43.225Z,67.03
2018-12-17T23:32:12.047Z,63.00
2018-12-17T23:34:40.880Z,63.87
2018-12-17T23:37:09.804Z,63.13
2018-12-17T23:39:38.519Z,61.43
2018-12-17T23:42:07.416Z,61.17
2018-12-17T23:44:36.784Z,59.63
2018-12-17T23:47:05.426Z,60.60
2018-12-17T23:49:34.097Z,62.77
2018-12-17T23:52:02.829Z,63.37
2018-12-17T23:54:31.438Z,62.13
2018-12-17T23:57:00.473Z,64.70
2018-12-17T23:59:29.038Z,66.23
